createdAt,value
2022-10-02T00:01:30.837Z,14.90
2022-10-02T00:05:01.700Z,14.90
2022-10-02T00:08:10.333Z,15.00
2022-10-02T00:11:45.271Z,14.90
2022-10-02T00:14:50.580Z,15.00
2022-10-02T00:17:55.857Z,15.00
2022-10-02T00:21:00.301Z,15.00
2022-10-02T00:24:04.811Z,15.00
2022-10-02T00:27:21.602Z,15.00
2022-10-02T00:30:23.507Z,15.00
2022-10-02T00:33:51.765Z,15.00
2022-10-02T00:37:05.526Z,15.00
2022-10-02T00:40:07.115Z,15.10
2022-10-02T00:43:30.251Z,15.00
2022-10-02T00:46:56.783Z,15.00
2022-10-02T00:50:08.933Z,15.10
2022-10-02T00:53:50.410Z,15.00
2022-10-02T00:57:13.590Z,15.00
2022-10-02T01:00:20.744Z,15.00
2022-10-02T01:03:31.851Z,15.00
2022-10-02T01:06:34.043Z,15.00
2022-10-02T01:09:37.757Z,15.10
2022-10-02T01:12:41.005Z,15.10
2022-10-02T01:15:52.928Z,15.00
2022-10-02T01:18:54.694Z,15.00
2022-10-02T01:22:17.376Z,15.00
2022-10-02T01:25:19.177Z,15.00
2022-10-02T01:28:22.380Z,15.00
2022-10-02T01:31:24.882Z,15.00
2022-10-02T01:34:27.423Z,15.00
2022-10-02T01:37:35.211Z,15.00
2022-10-02T01:40:39.065Z,15.00
2022-10-02T01:43:52.505Z,15.00
2022-10-02T01:47:03.434Z,15.00
2022-10-02T01:50:48.219Z,15.00
2022-10-02T01:54:20.115Z,15.00
2022-10-02T01:57:25.265Z,15.00
2022-10-02T02:00:30.342Z,15.00
2022-10-02T02:03:49.753Z,15.00
2022-10-02T02:07:00.510Z,15.00
2022-10-02T02:10:08.130Z,15.00
2022-10-02T02:13:40.441Z,15.10
2022-10-02T02:16:44.225Z,15.00
2022-10-02T02:20:06.119Z,15.00
2022-10-02T02:23:15.580Z,15.00
2022-10-02T02:26:19.474Z,15.00
2022-10-02T02:29:24.527Z,15.00
2022-10-02T02:32:30.346Z,15.00
2022-10-02T02:35:37.807Z,14.90
2022-10-02T02:38:45.972Z,14.90
2022-10-02T02:41:53.021Z,14.90
2022-10-02T02:45:01.213Z,14.80
2022-10-02T02:48:08.556Z,14.80
2022-10-02T02:51:21.737Z,14.90
2022-10-02T02:54:31.036Z,14.90
2022-10-02T02:57:44.389Z,14.80
2022-10-02T03:00:46.777Z,14.80
2022-10-02T03:03:48.615Z,14.80
2022-10-02T03:06:57.311Z,14.80
2022-10-02T03:10:08.731Z,14.80
2022-10-02T03:13:16.508Z,14.80
2022-10-02T03:17:00.217Z,14.70
2022-10-02T03:20:10.829Z,14.70
2022-10-02T03:23:51.200Z,14.80
2022-10-02T03:27:02.337Z,14.80
2022-10-02T03:30:08.527Z,14.70
2022-10-02T03:33:14.905Z,14.80
2022-10-02T03:36:21.110Z,14.70
2022-10-02T03:39:25.624Z,14.70
2022-10-02T03:42:33.237Z,14.70
2022-10-02T03:45:51.912Z,14.70
2022-10-02T03:48:56.547Z,14.70
2022-10-02T03:51:58.285Z,14.70
2022-10-02T03:55:03.848Z,14.80
2022-10-02T03:58:15.027Z,14.80
2022-10-02T04:01:28.888Z,14.70
2022-10-02T04:04:47.863Z,14.70
2022-10-02T04:07:53.662Z,14.70
2022-10-02T04:11:07.936Z,14.70
2022-10-02T04:14:17.511Z,14.70
2022-10-02T04:17:27.427Z,14.70
2022-10-02T04:20:41.682Z,14.70
2022-10-02T04:23:53.024Z,14.70
2022-10-02T04:27:07.052Z,14.70
2022-10-02T04:30:16.788Z,14.70
2022-10-02T04:33:22.159Z,14.70
2022-10-02T04:36:31.160Z,14.60
2022-10-02T04:40:07.950Z,14.70
2022-10-02T04:43:30.638Z,14.60
2022-10-02T04:46:35.737Z,14.60
2022-10-02T04:50:07.836Z,14.60
2022-10-02T04:53:20.621Z,14.60
2022-10-02T04:56:46.457Z,14.60
2022-10-02T05:00:09.039Z,14.60
2022-10-02T05:03:50.389Z,14.60
2022-10-02T05:07:45.422Z,14.60
2022-10-02T05:11:12.246Z,14.50
2022-10-02T05:14:35.628Z,14.50
2022-10-02T05:17:46.369Z,14.50
2022-10-02T05:21:15.377Z,14.50
2022-10-02T05:24:58.211Z,14.50
2022-10-02T05:28:24.594Z,14.50
2022-10-02T05:31:51.867Z,14.50
2022-10-02T05:34:53.922Z,14.50
2022-10-02T05:37:59.004Z,14.50
2022-10-02T05:41:40.140Z,14.40
2022-10-02T05:45:12.024Z,14.40
2022-10-02T05:48:33.178Z,14.40
2022-10-02T05:51:40.219Z,14.30
2022-10-02T05:55:02.328Z,14.30
2022-10-02T05:58:25.396Z,14.30
2022-10-02T06:01:36.248Z,14.30
2022-10-02T06:04:44.023Z,14.30
2022-10-02T06:07:49.418Z,14.30
2022-10-02T06:10:56.872Z,14.30
2022-10-02T06:14:07.847Z,14.30
2022-10-02T06:17:16.217Z,14.30
2022-10-02T06:20:21.732Z,14.30
2022-10-02T06:23:47.743Z,14.30
2022-10-02T06:27:03.315Z,14.30
2022-10-02T06:30:08.647Z,14.20
2022-10-02T06:33:22.488Z,14.20
2022-10-02T06:36:42.834Z,14.20
2022-10-02T06:40:18.778Z,14.20
2022-10-02T06:43:40.548Z,14.20
2022-10-02T06:46:53.124Z,14.30
2022-10-02T06:50:19.365Z,14.30
2022-10-02T06:53:26.793Z,14.30
2022-10-02T06:56:49.370Z,14.30
2022-10-02T07:00:00.135Z,14.30
2022-10-02T07:03:19.936Z,14.20
2022-10-02T07:06:24.744Z,14.30
2022-10-02T07:09:32.285Z,14.30
2022-10-02T07:13:00.764Z,14.30
2022-10-02T07:16:09.113Z,14.30
2022-10-02T07:19:38.907Z,14.30
2022-10-02T07:23:10.066Z,14.30
2022-10-02T07:26:19.262Z,14.30
2022-10-02T07:29:54.390Z,14.30
2022-10-02T07:33:38.875Z,14.30
2022-10-02T07:37:02.433Z,14.40
2022-10-02T07:40:17.011Z,14.40
2022-10-02T07:43:34.288Z,14.40
2022-10-02T07:46:42.383Z,14.40
2022-10-02T07:49:51.169Z,14.40
2022-10-02T07:52:55.991Z,14.40
2022-10-02T07:55:59.225Z,14.40
2022-10-02T07:59:09.659Z,14.40
2022-10-02T08:02:30.238Z,14.40
2022-10-02T08:05:46.073Z,14.40
2022-10-02T08:08:56.534Z,14.40
2022-10-02T08:12:15.286Z,14.40
2022-10-02T08:15:20.824Z,14.40
2022-10-02T08:18:36.513Z,14.40
2022-10-02T08:21:47.312Z,14.50
2022-10-02T08:25:04.673Z,14.50
2022-10-02T08:28:19.744Z,14.50
2022-10-02T08:31:23.609Z,14.50
2022-10-02T08:34:26.182Z,14.60
2022-10-02T08:37:42.634Z,14.60
2022-10-02T08:41:15.991Z,14.70
2022-10-02T08:44:35.998Z,14.60
2022-10-02T08:48:08.983Z,14.70
2022-10-02T08:51:39.825Z,14.70
2022-10-02T08:54:53.601Z,14.70
2022-10-02T08:58:11.149Z,14.70
2022-10-02T09:01:57.608Z,14.70
2022-10-02T09:05:39.611Z,14.70
2022-10-02T09:08:58.210Z,14.80
2022-10-02T09:12:30.389Z,14.80
2022-10-02T09:16:01.255Z,14.80
2022-10-02T09:19:11.131Z,14.80
2022-10-02T09:22:31.052Z,14.80
2022-10-02T09:25:43.449Z,14.80
2022-10-02T09:29:19.473Z,14.90
2022-10-02T09:32:46.085Z,14.90
2022-10-02T09:36:15.133Z,14.90
2022-10-02T09:39:38.738Z,15.00
2022-10-02T09:42:49.408Z,15.00
2022-10-02T09:46:10.473Z,15.00
2022-10-02T09:49:47.072Z,15.10
2022-10-02T09:53:25.747Z,15.10
2022-10-02T09:57:06.849Z,15.10
2022-10-02T10:00:34.520Z,15.20
2022-10-02T10:04:12.705Z,15.20
2022-10-02T10:07:39.492Z,15.10
2022-10-02T10:10:50.085Z,15.10
2022-10-02T10:14:22.670Z,15.10
2022-10-02T10:18:04.187Z,15.10
2022-10-02T10:21:13.096Z,15.10
2022-10-02T10:24:47.237Z,15.10
2022-10-02T10:27:49.103Z,15.10
2022-10-02T10:30:50.868Z,15.00
2022-10-02T10:34:04.191Z,15.10
2022-10-02T10:37:32.303Z,15.10
2022-10-02T10:41:11.077Z,15.10
2022-10-02T10:44:18.352Z,15.10
2022-10-02T10:47:46.560Z,15.10
2022-10-02T10:51:21.591Z,15.20
2022-10-02T10:54:32.107Z,15.20
2022-10-02T10:57:39.417Z,15.20
2022-10-02T11:00:53.876Z,15.20
2022-10-02T11:04:15.672Z,15.20
2022-10-02T11:07:26.332Z,15.20
2022-10-02T11:10:37.989Z,15.20
2022-10-02T11:14:10.852Z,15.20
2022-10-02T11:17:48.260Z,15.20
2022-10-02T11:21:13.855Z,15.30
2022-10-02T11:24:48.897Z,15.30
2022-10-02T11:28:06.236Z,15.40
2022-10-02T11:31:17.330Z,15.40
2022-10-02T11:35:09.621Z,15.30
2022-10-02T11:38:26.477Z,15.30
2022-10-02T11:41:59.430Z,15.30
2022-10-02T11:45:33.947Z,15.40
2022-10-02T11:48:39.055Z,15.40
2022-10-02T11:51:46.430Z,15.50
2022-10-02T11:54:57.558Z,15.60
2022-10-02T11:58:18.828Z,15.50
2022-10-02T12:01:27.241Z,15.60
2022-10-02T12:04:35.025Z,15.70
2022-10-02T12:07:47.151Z,15.70
2022-10-02T12:10:49.001Z,15.80
2022-10-02T12:14:16.602Z,15.80
2022-10-02T12:17:54.996Z,15.80
2022-10-02T12:21:18.245Z,15.90
2022-10-02T12:25:03.134Z,15.90
2022-10-02T12:28:11.824Z,15.90
2022-10-02T12:31:33.574Z,15.90
2022-10-02T12:34:56.388Z,15.80
2022-10-02T12:38:23.021Z,15.90
2022-10-02T12:41:52.987Z,15.80
2022-10-02T12:45:18.389Z,15.80
2022-10-02T12:48:32.494Z,15.90
2022-10-02T12:51:46.573Z,15.90
2022-10-02T12:55:00.245Z,15.80
2022-10-02T12:58:02.081Z,15.90
2022-10-02T13:01:31.012Z,16.00
2022-10-02T13:04:47.978Z,16.00
2022-10-02T13:08:11.528Z,16.00
2022-10-02T13:11:22.594Z,16.00
2022-10-02T13:14:52.465Z,16.00
2022-10-02T13:18:09.178Z,16.00
2022-10-02T13:21:53.336Z,16.00
2022-10-02T13:25:25.800Z,16.00
2022-10-02T13:28:47.965Z,16.00
2022-10-02T13:32:13.045Z,16.00
2022-10-02T13:35:19.422Z,15.90
2022-10-02T13:38:37.505Z,15.90
2022-10-02T13:42:18.510Z,15.90
2022-10-02T13:45:49.851Z,15.90
2022-10-02T13:49:07.553Z,15.90
2022-10-02T13:52:09.983Z,15.90
2022-10-02T13:55:17.723Z,16.00
2022-10-02T13:58:37.493Z,16.00
2022-10-02T14:02:04.805Z,16.00
2022-10-02T14:05:21.166Z,16.00
2022-10-02T14:08:50.449Z,16.10
2022-10-02T14:12:09.187Z,16.10
2022-10-02T14:15:19.844Z,16.10
2022-10-02T14:18:21.695Z,16.00
2022-10-02T14:21:42.676Z,16.00
2022-10-02T14:25:10.338Z,16.00
2022-10-02T14:28:24.217Z,16.00
2022-10-02T14:31:35.711Z,16.00
2022-10-02T14:35:01.500Z,16.00
2022-10-02T14:38:15.202Z,16.00
2022-10-02T14:41:19.963Z,15.90
2022-10-02T14:44:34.065Z,16.00
2022-10-02T14:47:57.449Z,16.00
2022-10-02T14:51:26.267Z,16.00
2022-10-02T14:54:36.794Z,16.00
2022-10-02T14:57:56.618Z,16.10
2022-10-02T15:01:23.428Z,16.00
2022-10-02T15:04:39.802Z,16.00
2022-10-02T15:07:42.390Z,16.00
2022-10-02T15:10:49.274Z,16.00
2022-10-02T15:14:00.665Z,16.00
2022-10-02T15:17:51.352Z,16.00
2022-10-02T15:20:59.605Z,16.00
2022-10-02T15:24:31.078Z,16.10
2022-10-02T15:28:12.038Z,16.10
2022-10-02T15:31:56.697Z,16.10
2022-10-02T15:35:16.381Z,16.00
2022-10-02T15:38:29.306Z,16.00
2022-10-02T15:42:03.005Z,16.00
2022-10-02T15:45:17.796Z,16.00
2022-10-02T15:48:43.540Z,16.00
2022-10-02T15:51:58.024Z,15.90
2022-10-02T15:55:38.766Z,16.00
2022-10-02T15:59:21.933Z,16.00
2022-10-02T16:02:38.895Z,16.00
2022-10-02T16:05:52.272Z,15.90
2022-10-02T16:09:02.254Z,16.00
2022-10-02T16:12:13.255Z,16.00
2022-10-02T16:15:38.130Z,16.00
2022-10-02T16:19:02.138Z,16.00
2022-10-02T16:22:28.156Z,16.00
2022-10-02T16:25:53.837Z,16.00
2022-10-02T16:29:17.176Z,16.00
2022-10-02T16:32:35.094Z,16.00
2022-10-02T16:35:55.477Z,16.00
2022-10-02T16:39:18.068Z,16.00
2022-10-02T16:42:42.827Z,15.90
2022-10-02T16:45:56.628Z,15.90
2022-10-02T16:49:16.768Z,15.90
2022-10-02T16:56:33.731Z,15.80
2022-10-02T16:59:46.008Z,15.70
2022-10-02T17:03:16.067Z,15.60
2022-10-02T17:06:41.669Z,15.60
2022-10-02T17:09:53.774Z,15.50
2022-10-02T17:13:12.245Z,15.50
2022-10-02T17:16:45.171Z,15.40
2022-10-02T17:20:04.910Z,15.40
2022-10-02T17:23:18.793Z,15.30
2022-10-02T17:26:36.887Z,15.20
2022-10-02T17:29:52.946Z,15.20
2022-10-02T17:33:06.957Z,15.10
2022-10-02T17:36:38.255Z,15.10
2022-10-02T17:40:06.684Z,15.10
2022-10-02T17:43:22.286Z,15.00
2022-10-02T17:47:06.945Z,15.00
2022-10-02T17:50:21.525Z,15.00
2022-10-02T17:53:51.104Z,14.90
2022-10-02T17:57:00.178Z,14.80
2022-10-02T18:00:17.751Z,14.80
2022-10-02T18:03:39.909Z,14.80
2022-10-02T18:07:09.560Z,14.80
2022-10-02T18:10:23.589Z,14.80
2022-10-02T18:13:48.372Z,14.70
2022-10-02T18:17:08.665Z,14.70
2022-10-02T18:20:28.771Z,14.60
2022-10-02T18:23:52.782Z,14.60
2022-10-02T18:27:32.850Z,14.60
2022-10-02T18:31:16.394Z,14.60
2022-10-02T18:34:29.204Z,14.50
2022-10-02T18:38:02.610Z,14.40
2022-10-02T18:41:21.441Z,14.50
2022-10-02T18:44:42.569Z,14.40
2022-10-02T18:48:09.163Z,14.40
2022-10-02T18:51:31.923Z,14.30
2022-10-02T18:54:54.527Z,14.30
2022-10-02T18:58:24.819Z,14.30
2022-10-02T19:01:43.408Z,14.20
2022-10-02T19:04:53.299Z,14.20
2022-10-02T19:08:04.023Z,14.20
2022-10-02T19:11:18.408Z,14.10
2022-10-02T19:14:36.112Z,14.10
2022-10-02T19:17:38.299Z,14.00
2022-10-02T19:20:48.984Z,14.00
2022-10-02T19:24:14.250Z,14.00
2022-10-02T19:27:27.955Z,13.90
2022-10-02T19:30:32.037Z,13.90
2022-10-02T19:33:56.356Z,13.90
2022-10-02T19:37:04.238Z,13.90
2022-10-02T19:40:10.083Z,13.80
2022-10-02T19:43:24.634Z,13.80
2022-10-02T19:46:48.700Z,13.80
2022-10-02T19:49:52.230Z,13.80
2022-10-02T19:53:06.824Z,13.70
2022-10-02T19:56:41.171Z,13.70
2022-10-02T19:59:49.170Z,13.70
2022-10-02T20:02:57.284Z,13.60
2022-10-02T20:06:06.903Z,13.60
2022-10-02T20:09:20.686Z,13.60
2022-10-02T20:12:31.978Z,13.50
2022-10-02T20:16:17.350Z,13.50
2022-10-02T20:19:24.743Z,13.40
2022-10-02T20:22:45.586Z,13.40
2022-10-02T20:26:08.798Z,13.40
2022-10-02T20:29:23.056Z,13.30
2022-10-02T20:32:31.691Z,13.30
2022-10-02T20:35:55.884Z,13.30
2022-10-02T20:39:09.795Z,13.20
2022-10-02T20:42:29.119Z,13.10
2022-10-02T20:45:38.345Z,13.10
2022-10-02T20:49:09.479Z,13.10
2022-10-02T20:52:53.465Z,13.10
2022-10-02T20:56:23.406Z,13.10
2022-10-02T20:59:48.075Z,12.90
2022-10-02T21:03:17.696Z,12.90
2022-10-02T21:06:57.182Z,12.90
2022-10-02T21:10:32.752Z,12.90
2022-10-02T21:13:48.204Z,12.90
2022-10-02T21:17:19.579Z,12.90
2022-10-02T21:20:49.692Z,12.80
2022-10-02T21:24:04.671Z,12.70
2022-10-02T21:27:12.593Z,12.70
2022-10-02T21:30:21.561Z,12.70
2022-10-02T21:33:39.372Z,12.70
2022-10-02T21:36:55.062Z,12.70
2022-10-02T21:40:35.277Z,12.60
2022-10-02T21:44:03.659Z,12.50
2022-10-02T21:47:39.393Z,12.60
2022-10-02T21:51:28.448Z,12.50
2022-10-02T21:55:27.535Z,12.40
2022-10-02T21:58:54.518Z,12.50
2022-10-02T22:02:27.769Z,12.40
2022-10-02T22:05:41.891Z,12.40
2022-10-02T22:09:18.114Z,12.40
2022-10-02T22:12:39.906Z,12.30
2022-10-02T22:15:56.313Z,12.40
2022-10-02T22:19:19.116Z,12.30
2022-10-02T22:22:39.238Z,12.30
2022-10-02T22:26:12.941Z,12.30
2022-10-02T22:29:39.086Z,12.20
2022-10-02T22:33:17.505Z,12.20
2022-10-02T22:36:47.532Z,12.20
2022-10-02T22:40:23.463Z,12.20
2022-10-02T22:44:00.197Z,12.10
2022-10-02T22:47:25.614Z,12.10
2022-10-02T22:50:47.962Z,12.10
2022-10-02T22:54:05.750Z,12.10
2022-10-02T22:57:30.374Z,12.10
2022-10-02T23:00:57.678Z,12.00
2022-10-02T23:04:11.193Z,12.00
2022-10-02T23:07:19.806Z,12.00
2022-10-02T23:10:32.414Z,11.90
2022-10-02T23:13:51.800Z,12.00
2022-10-02T23:17:01.509Z,11.90
2022-10-02T23:20:36.143Z,11.80
2022-10-02T23:24:14.627Z,11.80
2022-10-02T23:27:27.323Z,11.80
2022-10-02T23:30:48.458Z,11.80
2022-10-02T23:34:14.800Z,11.80
2022-10-02T23:37:38.598Z,11.70
2022-10-02T23:41:08.898Z,11.70
2022-10-02T23:44:15.033Z,11.60
2022-10-02T23:47:20.873Z,11.60
2022-10-02T23:50:47.867Z,11.60
2022-10-02T23:54:45.072Z,11.60
